createdAt,value
2022-11-10T00:01:32.012Z,11.50
2022-11-10T00:04:39.682Z,11.52
2022-11-10T00:07:46.423Z,11.50
2022-11-10T00:10:54.278Z,11.49
2022-11-10T00:14:01.763Z,11.49
2022-11-10T00:17:09.225Z,11.43
2022-11-10T00:20:16.878Z,11.39
2022-11-10T00:23:24.604Z,11.35
2022-11-10T00:26:31.993Z,11.34
2022-11-10T00:29:39.838Z,11.32
2022-11-10T00:32:46.711Z,11.29
2022-11-10T00:35:54.345Z,11.31
2022-11-10T00:39:01.572Z,11.31
2022-11-10T00:42:08.843Z,11.31
2022-11-10T00:45:16.176Z,11.32
2022-11-10T00:48:23.527Z,11.34
2022-11-10T00:51:30.816Z,11.32
2022-11-10T00:54:38.346Z,11.34
2022-11-10T00:57:45.208Z,11.31
2022-11-10T01:00:53.007Z,11.29
2022-11-10T01:03:59.880Z,11.29
2022-11-10T01:07:07.592Z,11.29
2022-11-10T01:10:14.762Z,11.28
2022-11-10T01:13:22.137Z,11.25
2022-11-10T01:16:29.712Z,11.24
2022-11-10T01:19:37.009Z,11.20
2022-11-10T01:22:44.273Z,11.16
2022-11-10T01:25:51.871Z,11.16
2022-11-10T01:28:58.683Z,11.16
2022-11-10T01:32:06.386Z,11.16
2022-11-10T01:35:13.118Z,11.25
2022-11-10T01:38:14.554Z,11.25
2022-11-10T01:41:22.576Z,11.24
2022-11-10T01:44:30.105Z,11.24
2022-11-10T01:47:37.568Z,11.25
2022-11-10T01:50:44.919Z,11.27
2022-11-10T01:53:52.430Z,11.29
2022-11-10T01:57:00.302Z,11.28
2022-11-10T02:00:07.442Z,11.25
2022-11-10T02:03:15.553Z,11.21
2022-11-10T02:06:22.922Z,11.20
2022-11-10T02:09:30.444Z,11.17
2022-11-10T02:12:38.132Z,11.13
2022-11-10T02:15:45.785Z,11.06
2022-11-10T02:18:53.349Z,10.91
2022-11-10T02:22:01.466Z,10.76
2022-11-10T02:25:08.574Z,10.60
2022-11-10T02:28:16.608Z,10.47
2022-11-10T02:31:23.719Z,10.43
2022-11-10T02:34:32.009Z,10.40
2022-11-10T02:37:39.405Z,10.36
2022-11-10T02:40:46.673Z,10.33
2022-11-10T02:43:54.230Z,10.34
2022-11-10T02:47:01.721Z,10.32
2022-11-10T02:50:09.393Z,10.21
2022-11-10T02:53:17.235Z,10.14
2022-11-10T02:56:24.405Z,10.07
2022-11-10T02:59:32.274Z,10.06
2022-11-10T03:02:39.263Z,10.06
2022-11-10T03:05:47.026Z,10.03
2022-11-10T03:08:54.312Z,10.01
2022-11-10T03:12:01.790Z,9.94
2022-11-10T03:15:09.108Z,9.85
2022-11-10T03:18:16.507Z,9.78
2022-11-10T03:21:24.140Z,9.64
2022-11-10T03:24:32.421Z,9.56
2022-11-10T03:27:39.424Z,9.49
2022-11-10T03:30:47.299Z,9.40
2022-11-10T03:33:54.801Z,9.35
2022-11-10T03:37:02.323Z,9.38
2022-11-10T03:40:09.825Z,9.38
2022-11-10T03:43:17.382Z,9.35
2022-11-10T03:46:24.942Z,9.34
2022-11-10T03:49:32.724Z,9.27
2022-11-10T03:52:39.815Z,9.24
2022-11-10T03:55:47.719Z,9.21
2022-11-10T03:58:54.836Z,9.20
2022-11-10T04:02:02.680Z,9.24
2022-11-10T04:05:10.118Z,9.25
2022-11-10T04:08:17.457Z,9.28
2022-11-10T04:11:24.929Z,9.28
2022-11-10T04:14:32.457Z,9.25
2022-11-10T04:17:40.027Z,9.23
2022-11-10T04:20:47.770Z,9.18
2022-11-10T04:23:54.751Z,9.15
2022-11-10T04:27:02.815Z,9.10
2022-11-10T04:30:09.873Z,9.09
2022-11-10T04:33:17.935Z,9.06
2022-11-10T04:36:25.542Z,9.04
2022-11-10T04:39:33.028Z,9.02
2022-11-10T04:42:40.557Z,8.99
2022-11-10T04:45:47.850Z,8.96
2022-11-10T04:48:55.510Z,8.96
2022-11-10T04:52:03.353Z,8.99
2022-11-10T04:55:10.437Z,9.01
2022-11-10T04:58:18.553Z,9.04
2022-11-10T05:01:26.373Z,9.09
2022-11-10T05:04:33.932Z,9.10
2022-11-10T05:07:41.604Z,9.06
2022-11-10T05:10:49.266Z,9.05
2022-11-10T05:13:56.807Z,9.09
2022-11-10T05:17:04.779Z,9.10
2022-11-10T05:20:11.975Z,9.10
2022-11-10T05:23:20.142Z,9.06
2022-11-10T05:26:27.329Z,9.04
2022-11-10T05:29:35.317Z,9.04
2022-11-10T05:32:42.802Z,8.97
2022-11-10T05:35:50.394Z,8.96
2022-11-10T05:38:57.841Z,8.97
2022-11-10T05:42:05.725Z,8.94
2022-11-10T05:45:12.892Z,8.91
2022-11-10T05:48:20.915Z,8.90
2022-11-10T05:51:27.977Z,8.90
2022-11-10T05:54:35.919Z,8.91
2022-11-10T05:57:43.326Z,8.93
2022-11-10T06:00:51.038Z,9.01
2022-11-10T06:03:58.621Z,8.99
2022-11-10T06:07:06.032Z,8.99
2022-11-10T06:10:13.710Z,9.01
2022-11-10T06:13:22.188Z,9.05
2022-11-10T06:16:29.402Z,9.12
2022-11-10T06:19:37.518Z,9.18
2022-11-10T06:22:45.225Z,9.25
2022-11-10T06:25:52.814Z,9.42
2022-11-10T06:29:00.293Z,9.50
2022-11-10T06:32:07.766Z,9.53
2022-11-10T06:35:15.203Z,9.52
2022-11-10T06:38:23.187Z,9.46
2022-11-10T06:41:30.286Z,9.38
2022-11-10T06:44:38.180Z,9.27
2022-11-10T06:47:45.232Z,9.16
2022-11-10T06:50:53.158Z,9.05
2022-11-10T06:54:00.744Z,8.91
2022-11-10T06:57:08.508Z,8.86
2022-11-10T07:00:16.299Z,8.79
2022-11-10T07:03:24.461Z,8.75
2022-11-10T07:06:32.582Z,8.75
2022-11-10T07:09:40.920Z,8.73
2022-11-10T07:12:48.365Z,8.78
2022-11-10T07:15:56.543Z,8.86
2022-11-10T07:19:04.467Z,8.97
2022-11-10T07:22:12.306Z,9.13
2022-11-10T07:25:20.154Z,9.23
2022-11-10T07:28:28.548Z,9.35
2022-11-10T07:31:36.311Z,9.45
2022-11-10T07:34:44.265Z,9.57
2022-11-10T07:37:51.735Z,9.76
2022-11-10T07:40:59.949Z,10.00
2022-11-10T07:44:08.022Z,10.15
2022-11-10T07:47:15.558Z,10.26
2022-11-10T07:50:23.456Z,10.40
2022-11-10T07:53:31.062Z,10.52
2022-11-10T07:56:38.809Z,10.63
2022-11-10T07:59:46.980Z,10.68
2022-11-10T08:02:54.225Z,10.76
2022-11-10T08:06:03.022Z,10.76
2022-11-10T08:09:10.881Z,10.68
2022-11-10T08:12:18.845Z,10.60
2022-11-10T08:15:26.617Z,10.53
2022-11-10T08:18:35.749Z,10.55
2022-11-10T08:21:43.674Z,10.58
2022-11-10T08:24:51.907Z,10.63
2022-11-10T08:27:59.157Z,10.68
2022-11-10T08:31:07.478Z,10.76
2022-11-10T08:34:15.182Z,10.80
2022-11-10T08:37:23.108Z,10.81
2022-11-10T08:40:30.852Z,10.86
2022-11-10T08:43:38.719Z,10.96
2022-11-10T08:46:46.810Z,11.03
2022-11-10T08:49:55.048Z,11.14
2022-11-10T08:53:02.424Z,11.35
2022-11-10T08:56:10.483Z,11.62
2022-11-10T08:59:17.898Z,11.90
2022-11-10T09:02:26.895Z,12.09
2022-11-10T09:05:34.698Z,12.29
2022-11-10T09:08:42.567Z,12.41
2022-11-10T09:11:50.611Z,12.52
2022-11-10T09:14:58.626Z,12.59
2022-11-10T09:18:06.070Z,12.69
2022-11-10T09:21:15.561Z,12.81
2022-11-10T09:24:27.094Z,12.81
2022-11-10T09:27:27.024Z,12.87
2022-11-10T09:30:34.893Z,12.85
2022-11-10T09:33:42.654Z,12.87
2022-11-10T09:36:50.413Z,12.84
2022-11-10T09:40:01.419Z,12.81
2022-11-10T09:43:08.771Z,12.89
2022-11-10T09:46:17.805Z,13.00
2022-11-10T09:49:24.952Z,13.12
2022-11-10T09:52:33.559Z,13.18
2022-11-10T09:55:41.160Z,13.18
2022-11-10T09:58:48.960Z,13.17
2022-11-10T10:01:56.490Z,13.14
2022-11-10T10:05:04.654Z,13.18
2022-11-10T10:08:12.140Z,13.25
2022-11-10T10:11:20.721Z,13.33
2022-11-10T10:14:28.147Z,13.32
2022-11-10T10:17:40.951Z,13.30
2022-11-10T10:20:38.434Z,13.41
2022-11-10T10:26:51.026Z,13.51
2022-11-10T10:29:59.066Z,13.54
2022-11-10T10:33:07.157Z,13.51
2022-11-10T10:36:15.268Z,13.43
2022-11-10T10:39:22.718Z,13.44
2022-11-10T10:42:31.084Z,13.40
2022-11-10T10:45:39.906Z,13.46
2022-11-10T10:48:53.769Z,13.43
2022-11-10T10:51:52.503Z,13.41
2022-11-10T10:55:00.416Z,13.41
2022-11-10T10:58:08.429Z,13.38
2022-11-10T11:01:16.808Z,13.40
2022-11-10T11:04:24.387Z,13.33
2022-11-10T11:07:32.867Z,13.29
2022-11-10T11:10:40.140Z,13.21
2022-11-10T11:13:48.491Z,13.22
2022-11-10T11:16:56.175Z,13.27
2022-11-10T11:20:03.918Z,13.41
2022-11-10T11:23:11.669Z,13.54
2022-11-10T11:26:20.298Z,13.62
2022-11-10T11:29:27.770Z,13.74
2022-11-10T11:32:35.842Z,13.84
2022-11-10T11:35:43.184Z,13.92
2022-11-10T11:38:51.293Z,13.98
2022-11-10T11:41:59.193Z,14.07
2022-11-10T11:45:07.004Z,14.16
2022-11-10T11:48:15.146Z,14.31
2022-11-10T11:51:22.797Z,14.44
2022-11-10T11:54:27.712Z,14.61
2022-11-10T11:57:37.179Z,14.75
2022-11-10T12:00:36.090Z,14.81
2022-11-10T12:03:43.795Z,14.80
2022-11-10T12:06:51.248Z,14.74
2022-11-10T12:09:58.572Z,14.60
2022-11-10T12:13:05.966Z,14.54
2022-11-10T12:16:13.529Z,14.64
2022-11-10T12:19:21.019Z,14.81
2022-11-10T12:22:28.821Z,14.86
2022-11-10T12:25:35.772Z,14.75
2022-11-10T12:28:43.498Z,14.65
2022-11-10T12:31:50.570Z,14.52
2022-11-10T12:34:58.385Z,14.52
2022-11-10T12:38:05.897Z,14.54
2022-11-10T12:41:13.243Z,14.53
2022-11-10T12:44:20.676Z,14.49
2022-11-10T12:47:28.449Z,14.46
2022-11-10T12:50:35.277Z,14.44
2022-11-10T12:53:43.078Z,14.54
2022-11-10T12:56:50.389Z,14.62
2022-11-10T12:59:57.760Z,14.61
2022-11-10T13:03:05.781Z,14.57
2022-11-10T13:06:12.751Z,14.54
2022-11-10T13:09:20.635Z,14.52
2022-11-10T13:12:28.139Z,14.47
2022-11-10T13:15:35.223Z,14.38
2022-11-10T13:18:43.085Z,14.28
2022-11-10T13:21:49.945Z,14.13
2022-11-10T13:24:57.859Z,13.99
2022-11-10T13:28:05.786Z,13.88
2022-11-10T13:31:12.920Z,13.80
2022-11-10T13:34:20.788Z,13.76
2022-11-10T13:37:27.730Z,13.76
2022-11-10T13:40:35.617Z,13.79
2022-11-10T13:43:43.231Z,13.81
2022-11-10T13:46:50.572Z,13.87
2022-11-10T13:49:57.722Z,13.89
2022-11-10T13:53:05.643Z,13.95
2022-11-10T13:56:12.555Z,13.99
2022-11-10T13:59:20.440Z,13.99
2022-11-10T14:02:27.487Z,13.99
2022-11-10T14:05:35.233Z,14.02
2022-11-10T14:08:42.563Z,14.01
2022-11-10T14:11:50.552Z,14.01
2022-11-10T14:14:58.121Z,13.98
2022-11-10T14:18:05.990Z,13.98
2022-11-10T14:21:12.861Z,13.96
2022-11-10T14:24:20.632Z,13.96
2022-11-10T14:27:27.718Z,13.92
2022-11-10T14:30:35.953Z,13.87
2022-11-10T14:33:43.782Z,13.80
2022-11-10T14:36:51.443Z,13.76
2022-11-10T14:39:59.056Z,13.69
2022-11-10T14:43:07.122Z,13.61
2022-11-10T14:46:14.299Z,13.55
2022-11-10T14:49:22.793Z,13.47
2022-11-10T14:52:30.098Z,13.43
2022-11-10T14:55:38.472Z,13.27
2022-11-10T14:58:46.199Z,13.22
2022-11-10T15:01:53.732Z,13.21
2022-11-10T15:05:01.513Z,13.17
2022-11-10T15:08:09.235Z,13.09
2022-11-10T15:11:16.276Z,13.00
2022-11-10T15:14:24.239Z,12.99
2022-11-10T15:17:31.322Z,12.92
2022-11-10T15:20:39.377Z,12.81
2022-11-10T15:23:46.802Z,12.75
2022-11-10T15:26:54.242Z,12.62
2022-11-10T15:30:01.553Z,12.48
2022-11-10T15:33:09.081Z,12.39
2022-11-10T15:36:16.878Z,12.23
2022-11-10T15:39:24.837Z,12.13
2022-11-10T15:42:32.043Z,12.11
2022-11-10T15:45:40.350Z,12.09
2022-11-10T15:48:48.353Z,12.19
2022-11-10T15:51:56.233Z,12.26
2022-11-10T15:55:04.127Z,12.29
2022-11-10T15:58:11.610Z,12.29
2022-11-10T16:01:19.313Z,12.24
2022-11-10T16:04:27.727Z,12.20
2022-11-10T16:07:34.801Z,12.08
2022-11-10T16:10:42.301Z,12.04
2022-11-10T16:13:49.281Z,12.09
2022-11-10T16:16:57.041Z,12.09
2022-11-10T16:20:04.574Z,12.11
2022-11-10T16:23:12.271Z,12.08
2022-11-10T16:26:19.679Z,12.09
2022-11-10T16:29:27.033Z,12.04
2022-11-10T16:32:34.772Z,11.99
2022-11-10T16:35:43.011Z,11.94
2022-11-10T16:38:50.153Z,11.90
2022-11-10T16:41:58.063Z,11.85
2022-11-10T16:45:05.008Z,11.68
2022-11-10T16:48:12.783Z,11.50
2022-11-10T16:51:20.154Z,11.34
2022-11-10T16:54:27.284Z,11.21
2022-11-10T16:57:39.719Z,11.19
2022-11-10T17:00:36.917Z,11.14
2022-11-10T17:03:43.684Z,11.10
2022-11-10T17:06:51.310Z,10.99
2022-11-10T17:09:58.015Z,10.88
2022-11-10T17:13:06.820Z,10.73
2022-11-10T17:16:14.134Z,10.65
2022-11-10T17:19:22.000Z,10.56
2022-11-10T17:22:29.324Z,10.47
2022-11-10T17:25:36.596Z,10.43
2022-11-10T17:28:43.782Z,10.40
2022-11-10T17:31:51.469Z,10.34
2022-11-10T17:34:58.180Z,10.25
2022-11-10T17:38:05.792Z,10.15
2022-11-10T17:41:12.880Z,10.09
2022-11-10T17:44:20.270Z,10.07
2022-11-10T17:47:27.673Z,9.99
2022-11-10T17:50:35.035Z,9.94
2022-11-10T17:53:42.074Z,9.89
2022-11-10T17:56:49.021Z,9.83
2022-11-10T17:59:56.506Z,9.76
2022-11-10T18:03:03.556Z,9.68
2022-11-10T18:06:10.755Z,9.63
2022-11-10T18:09:18.147Z,9.56
2022-11-10T18:12:27.945Z,9.46
2022-11-10T18:15:35.912Z,9.39
2022-11-10T18:18:43.068Z,9.32
2022-11-10T18:21:49.680Z,9.30
2022-11-10T18:24:57.210Z,9.27
2022-11-10T18:28:04.303Z,9.23
2022-11-10T18:31:11.492Z,9.15
2022-11-10T18:34:19.207Z,9.16
2022-11-10T18:37:26.355Z,9.20
2022-11-10T18:40:33.523Z,9.16
2022-11-10T18:43:40.850Z,9.20
2022-11-10T18:46:47.938Z,9.38
2022-11-10T18:49:54.907Z,9.46
2022-11-10T18:53:01.837Z,9.57
2022-11-10T18:56:08.617Z,9.71
2022-11-10T18:59:15.609Z,9.82
2022-11-10T19:02:22.726Z,9.88
2022-11-10T19:05:30.418Z,9.89
2022-11-10T19:08:37.587Z,9.82
2022-11-10T19:11:44.955Z,9.75
2022-11-10T19:14:52.095Z,9.66
2022-11-10T19:17:59.582Z,9.60
2022-11-10T19:21:06.655Z,9.52
2022-11-10T19:24:21.746Z,9.48
2022-11-10T19:27:18.201Z,9.52
2022-11-10T19:30:25.664Z,9.49
2022-11-10T19:33:32.183Z,9.50
2022-11-10T19:36:39.077Z,9.43
2022-11-10T19:39:46.315Z,9.34
2022-11-10T19:42:53.386Z,9.30
2022-11-10T19:46:00.612Z,9.28
2022-11-10T19:49:07.917Z,9.27
2022-11-10T19:52:14.700Z,9.23
2022-11-10T19:55:22.293Z,9.15
2022-11-10T19:58:29.816Z,9.18
2022-11-10T20:01:36.465Z,9.25
2022-11-10T20:04:43.984Z,9.30
2022-11-10T20:07:51.367Z,9.30
2022-11-10T20:10:58.175Z,9.38
2022-11-10T20:14:05.425Z,9.38
2022-11-10T20:17:12.088Z,9.35
2022-11-10T20:20:19.419Z,9.34
2022-11-10T20:23:26.869Z,9.31
2022-11-10T20:26:33.708Z,9.30
2022-11-10T20:29:41.226Z,9.32
2022-11-10T20:32:48.631Z,9.45
2022-11-10T20:35:55.439Z,9.48
2022-11-10T20:39:02.869Z,9.48
2022-11-10T20:42:09.862Z,9.43
2022-11-10T20:45:16.708Z,9.50
2022-11-10T20:48:23.804Z,9.43
2022-11-10T20:51:30.967Z,9.34
2022-11-10T20:54:38.265Z,9.32
2022-11-10T20:57:45.420Z,9.32
2022-11-10T21:00:52.285Z,9.27
2022-11-10T21:03:59.924Z,9.20
2022-11-10T21:07:06.926Z,9.18
2022-11-10T21:10:13.871Z,9.23
2022-11-10T21:13:21.466Z,9.20
2022-11-10T21:16:28.605Z,9.21
2022-11-10T21:19:35.549Z,9.25
2022-11-10T21:22:42.890Z,9.23
2022-11-10T21:25:49.973Z,9.25
2022-11-10T21:28:56.899Z,9.27
2022-11-10T21:32:04.082Z,9.25
2022-11-10T21:35:11.444Z,9.15
2022-11-10T21:38:18.562Z,9.02
2022-11-10T21:41:25.541Z,8.90
2022-11-10T21:44:33.013Z,8.79
2022-11-10T21:47:40.132Z,8.69
2022-11-10T21:50:47.143Z,8.60
2022-11-10T21:53:54.207Z,8.54
2022-11-10T21:57:01.147Z,8.57
2022-11-10T22:00:08.172Z,8.57
2022-11-10T22:03:15.106Z,8.66
2022-11-10T22:06:21.746Z,8.69
2022-11-10T22:09:29.024Z,8.69
2022-11-10T22:12:35.874Z,8.73
2022-11-10T22:15:42.918Z,8.71
2022-11-10T22:18:50.165Z,8.66
2022-11-10T22:22:00.876Z,8.58
2022-11-10T22:25:00.113Z,8.58
2022-11-10T22:28:07.348Z,8.54
2022-11-10T22:31:13.939Z,8.51
2022-11-10T22:34:21.270Z,8.39
2022-11-10T22:37:28.581Z,8.29
2022-11-10T22:40:35.249Z,8.15
2022-11-10T22:43:42.546Z,8.12
2022-11-10T22:46:49.392Z,8.07
2022-11-10T22:49:56.272Z,7.94
2022-11-10T22:53:03.583Z,7.82
2022-11-10T22:56:10.543Z,7.77
2022-11-10T22:59:17.572Z,7.87
2022-11-10T23:02:25.045Z,8.02
2022-11-10T23:05:32.026Z,8.25
2022-11-10T23:08:39.116Z,8.65
2022-11-10T23:11:46.086Z,8.84
2022-11-10T23:14:53.302Z,8.99
2022-11-10T23:18:06.256Z,9.10
2022-11-10T23:21:02.969Z,9.20
2022-11-10T23:24:10.300Z,9.23
2022-11-10T23:27:17.156Z,9.27
2022-11-10T23:30:24.157Z,9.31
2022-11-10T23:33:33.187Z,9.32
2022-11-10T23:36:40.272Z,9.30
2022-11-10T23:39:47.580Z,9.31
2022-11-10T23:42:54.620Z,9.38
2022-11-10T23:46:08.519Z,9.32
2022-11-10T23:49:04.483Z,9.21
2022-11-10T23:52:11.069Z,9.10
2022-11-10T23:55:18.076Z,9.04
2022-11-10T23:58:25.475Z,8.90
